createdAt,value
2023-04-06T00:01:00.809Z,84.20
2023-04-06T00:03:31.345Z,84.30
2023-04-06T00:06:00.199Z,84.60
2023-04-06T00:08:28.797Z,84.80
2023-04-06T00:10:57.306Z,84.80
2023-04-06T00:13:26.389Z,84.60
2023-04-06T00:15:55.161Z,84.60
2023-04-06T00:18:24.577Z,84.70
2023-04-06T00:20:54.759Z,84.80
2023-04-06T00:23:23.468Z,84.80
2023-04-06T00:25:51.847Z,84.90
2023-04-06T00:28:26.230Z,85.20
2023-04-06T00:30:56.393Z,85.20
2023-04-06T00:33:25.741Z,85.30
2023-04-06T00:35:55.480Z,85.50
2023-04-06T00:38:24.488Z,85.70
2023-04-06T00:40:53.204Z,85.90
2023-04-06T00:43:21.562Z,86.00
2023-04-06T00:45:50.405Z,86.30
2023-04-06T00:48:19.334Z,86.50
2023-04-06T00:50:47.700Z,86.60
2023-04-06T00:53:17.441Z,86.70
2023-04-06T00:55:46.463Z,86.70
2023-04-06T00:58:14.938Z,86.70
2023-04-06T01:00:54.523Z,86.70
2023-04-06T01:03:25.093Z,86.70
2023-04-06T01:05:59.126Z,86.60
2023-04-06T01:08:34.273Z,86.80
2023-04-06T01:11:15.564Z,86.90
2023-04-06T01:13:44.045Z,87.00
2023-04-06T01:16:21.620Z,87.20
2023-04-06T01:19:11.179Z,87.20
2023-04-06T01:21:43.508Z,87.40
2023-04-06T01:24:36.160Z,87.30
2023-04-06T01:27:12.163Z,87.30
2023-04-06T01:30:00.954Z,87.40
2023-04-06T01:32:47.996Z,87.50
2023-04-06T01:35:21.046Z,87.60
2023-04-06T01:38:00.753Z,87.70
2023-04-06T01:40:35.020Z,87.70
2023-04-06T01:43:04.252Z,88.00
2023-04-06T01:45:38.627Z,88.10
2023-04-06T01:48:21.446Z,88.10
2023-04-06T01:50:50.581Z,88.20
2023-04-06T01:53:25.413Z,88.30
2023-04-06T01:55:59.032Z,88.30
2023-04-06T01:58:32.611Z,89.20
2023-04-06T02:01:01.855Z,88.50
2023-04-06T02:03:35.440Z,88.60
2023-04-06T02:06:09.251Z,88.70
2023-04-06T02:08:41.479Z,88.70
2023-04-06T02:11:11.248Z,88.90
2023-04-06T02:13:47.657Z,89.10
2023-04-06T02:16:17.014Z,89.00
2023-04-06T02:18:47.587Z,89.20
2023-04-06T02:21:18.546Z,89.30
2023-04-06T02:23:47.273Z,89.40
2023-04-06T02:26:16.988Z,89.40
2023-04-06T02:28:45.684Z,89.50
2023-04-06T02:31:16.024Z,89.60
2023-04-06T02:33:46.386Z,89.60
2023-04-06T02:36:17.350Z,89.70
2023-04-06T02:38:46.109Z,89.90
2023-04-06T02:41:14.501Z,90.00
2023-04-06T02:43:44.233Z,90.00
2023-04-06T02:46:31.053Z,90.00
2023-04-06T02:49:01.443Z,90.00
2023-04-06T02:51:32.687Z,90.10
2023-04-06T02:54:11.970Z,90.10
2023-04-06T02:56:40.546Z,90.10
2023-04-06T02:59:11.378Z,90.10
2023-04-06T03:01:41.217Z,90.20
2023-04-06T03:04:09.906Z,90.20
2023-04-06T03:06:38.556Z,90.30
2023-04-06T03:09:16.681Z,90.40
2023-04-06T03:11:46.466Z,90.40
2023-04-06T03:14:18.315Z,90.50
2023-04-06T03:16:46.679Z,90.50
2023-04-06T03:19:20.330Z,90.50
2023-04-06T03:21:49.376Z,90.50
2023-04-06T03:24:19.215Z,90.60
2023-04-06T03:26:47.933Z,90.60
2023-04-06T03:29:17.699Z,90.60
2023-04-06T03:31:46.399Z,90.70
2023-04-06T03:34:32.078Z,90.70
2023-04-06T03:37:09.183Z,90.70
2023-04-06T03:39:42.760Z,90.80
2023-04-06T03:42:13.405Z,90.80
2023-04-06T03:44:50.482Z,90.80
2023-04-06T03:47:19.778Z,90.90
2023-04-06T03:49:48.452Z,91.00
2023-04-06T03:52:18.117Z,91.10
2023-04-06T03:55:08.632Z,91.20
2023-04-06T03:57:38.993Z,91.30
2023-04-06T04:00:10.236Z,91.30
2023-04-06T04:02:41.936Z,91.30
2023-04-06T04:05:11.168Z,91.30
2023-04-06T04:07:39.907Z,91.30
2023-04-06T04:10:10.361Z,91.30
2023-04-06T04:12:39.163Z,91.40
2023-04-06T04:15:10.322Z,91.80
2023-04-06T04:17:38.784Z,91.50
2023-04-06T04:20:08.652Z,91.50
2023-04-06T04:22:37.513Z,91.70
2023-04-06T04:25:07.257Z,91.60
2023-04-06T04:27:40.378Z,91.70
2023-04-06T04:30:11.278Z,91.70
2023-04-06T04:32:39.849Z,91.80
2023-04-06T04:35:12.388Z,91.90
2023-04-06T04:37:43.549Z,92.00
2023-04-06T04:40:13.597Z,92.20
2023-04-06T04:42:55.961Z,92.30
2023-04-06T04:45:33.516Z,92.30
2023-04-06T04:48:10.553Z,92.20
2023-04-06T04:50:51.404Z,92.20
2023-04-06T04:53:25.149Z,92.20
2023-04-06T04:55:57.936Z,92.10
2023-04-06T04:58:29.211Z,92.00
2023-04-06T05:01:02.512Z,91.90
2023-04-06T05:03:31.825Z,91.90
2023-04-06T05:06:06.985Z,91.90
2023-04-06T05:08:38.846Z,91.80
2023-04-06T05:11:08.158Z,91.80
2023-04-06T05:13:41.115Z,91.80
2023-04-06T05:16:24.917Z,91.80
2023-04-06T05:18:54.446Z,91.80
2023-04-06T05:21:23.607Z,91.90
2023-04-06T05:23:59.869Z,91.80
2023-04-06T05:26:29.740Z,91.80
2023-04-06T05:29:04.253Z,91.80
2023-04-06T05:31:38.697Z,91.80
2023-04-06T05:34:07.237Z,92.00
2023-04-06T05:36:38.523Z,91.60
2023-04-06T05:39:15.839Z,91.60
2023-04-06T05:41:51.417Z,91.50
2023-04-06T05:44:30.665Z,91.40
2023-04-06T05:47:11.463Z,91.40
2023-04-06T05:49:43.690Z,91.30
2023-04-06T05:52:17.999Z,91.20
2023-04-06T05:54:48.791Z,91.30
2023-04-06T05:57:18.014Z,91.20
2023-04-06T05:59:47.069Z,90.90
2023-04-06T06:02:18.468Z,91.00
2023-04-06T06:04:51.030Z,90.80
2023-04-06T06:07:20.644Z,90.80
2023-04-06T06:09:59.849Z,90.80
2023-04-06T06:12:33.326Z,91.00
2023-04-06T06:15:03.301Z,90.70
2023-04-06T06:17:39.021Z,90.60
2023-04-06T06:20:09.864Z,90.70
2023-04-06T06:22:38.463Z,90.10
2023-04-06T06:25:08.254Z,90.00
2023-04-06T06:27:37.066Z,89.90
2023-04-06T06:30:09.011Z,89.60
2023-04-06T06:32:42.192Z,89.00
2023-04-06T06:35:11.398Z,88.50
2023-04-06T06:37:40.416Z,88.30
2023-04-06T06:40:14.246Z,89.50
2023-04-06T06:42:43.967Z,88.10
2023-04-06T06:45:41.957Z,87.60
2023-04-06T06:48:11.926Z,86.50
2023-04-06T06:50:41.174Z,84.00
2023-04-06T06:53:09.970Z,83.20
2023-04-06T06:55:38.750Z,82.10
2023-04-06T06:58:07.681Z,81.00
2023-04-06T07:00:36.260Z,79.60
2023-04-06T07:03:06.597Z,80.40
2023-04-06T07:05:38.072Z,81.00
2023-04-06T07:08:08.145Z,79.40
2023-04-06T07:10:36.589Z,79.00
2023-04-06T07:13:05.014Z,79.20
2023-04-06T07:15:35.162Z,77.20
2023-04-06T07:18:04.120Z,78.80
2023-04-06T07:20:32.955Z,79.00
2023-04-06T07:23:03.671Z,78.10
2023-04-06T07:25:32.249Z,77.60
2023-04-06T07:28:00.728Z,76.60
2023-04-06T07:30:31.687Z,76.00
2023-04-06T07:33:02.003Z,77.50
2023-04-06T07:35:32.098Z,77.10
2023-04-06T07:38:00.957Z,75.90
2023-04-06T07:40:32.841Z,74.90
2023-04-06T07:43:02.924Z,75.40
2023-04-06T07:45:33.010Z,74.80
2023-04-06T07:48:02.871Z,74.60
2023-04-06T07:50:33.078Z,74.90
2023-04-06T07:53:02.001Z,74.10
2023-04-06T07:55:32.519Z,74.80
2023-04-06T07:58:00.912Z,76.30
2023-04-06T08:00:29.961Z,75.40
2023-04-06T08:02:58.609Z,75.60
2023-04-06T08:05:27.671Z,75.40
2023-04-06T08:07:56.194Z,75.10
2023-04-06T08:10:24.960Z,75.10
2023-04-06T08:12:54.743Z,74.60
2023-04-06T08:15:23.211Z,74.30
2023-04-06T08:17:51.623Z,73.60
2023-04-06T08:20:20.737Z,73.70
2023-04-06T08:22:50.492Z,73.70
2023-04-06T08:25:20.674Z,73.50
2023-04-06T08:27:49.040Z,73.30
2023-04-06T08:30:20.264Z,74.30
2023-04-06T08:32:48.887Z,74.00
2023-04-06T08:35:17.678Z,74.70
2023-04-06T08:37:46.398Z,75.10
2023-04-06T08:40:15.297Z,74.80
2023-04-06T08:42:46.937Z,73.30
2023-04-06T08:45:18.886Z,73.90
2023-04-06T08:47:49.232Z,73.20
2023-04-06T08:50:19.387Z,73.80
2023-04-06T08:52:49.545Z,73.70
2023-04-06T08:55:19.126Z,73.40
2023-04-06T08:57:49.089Z,72.60
2023-04-06T09:00:20.540Z,72.00
2023-04-06T09:02:51.417Z,73.20
2023-04-06T09:05:21.045Z,72.60
2023-04-06T09:07:49.403Z,72.30
2023-04-06T09:10:19.737Z,72.70
2023-04-06T09:12:48.135Z,73.60
2023-04-06T09:15:25.170Z,73.00
2023-04-06T09:17:55.659Z,72.70
2023-04-06T09:20:27.670Z,70.70
2023-04-06T09:22:56.575Z,71.10
2023-04-06T09:25:27.929Z,70.90
2023-04-06T09:28:03.360Z,70.20
2023-04-06T09:30:33.708Z,71.80
2023-04-06T09:33:02.133Z,70.60
2023-04-06T09:35:32.754Z,70.70
2023-04-06T09:38:01.186Z,69.40
2023-04-06T09:40:30.495Z,69.30
2023-04-06T09:43:00.458Z,69.20
2023-04-06T09:45:33.619Z,69.20
2023-04-06T09:48:02.543Z,70.60
2023-04-06T09:50:34.433Z,70.60
2023-04-06T09:53:03.329Z,70.30
2023-04-06T09:55:37.508Z,70.20
2023-04-06T09:58:08.305Z,68.70
2023-04-06T10:00:54.668Z,69.20
2023-04-06T10:03:38.696Z,69.60
2023-04-06T10:06:13.130Z,68.70
2023-04-06T10:08:45.186Z,68.40
2023-04-06T10:11:14.581Z,68.60
2023-04-06T10:13:43.126Z,67.90
2023-04-06T10:16:14.680Z,67.00
2023-04-06T10:18:47.119Z,68.20
2023-04-06T10:21:21.853Z,67.20
2023-04-06T10:23:53.767Z,66.50
2023-04-06T10:26:23.495Z,66.10
2023-04-06T10:28:53.170Z,66.20
2023-04-06T10:31:29.402Z,66.80
2023-04-06T10:33:58.650Z,66.90
2023-04-06T10:36:28.981Z,66.10
2023-04-06T10:38:59.402Z,65.90
2023-04-06T10:41:35.306Z,65.90
2023-04-06T10:44:04.611Z,66.00
2023-04-06T10:46:36.130Z,65.60
2023-04-06T10:49:14.228Z,65.10
2023-04-06T10:51:42.676Z,65.40
2023-04-06T10:54:13.770Z,63.50
2023-04-06T10:56:42.170Z,63.00
2023-04-06T10:59:10.965Z,63.00
2023-04-06T11:01:40.808Z,62.70
2023-04-06T11:04:11.281Z,61.90
2023-04-06T11:06:41.038Z,63.00
2023-04-06T11:09:11.414Z,63.60
2023-04-06T11:11:41.290Z,64.20
2023-04-06T11:14:12.471Z,63.60
2023-04-06T11:16:42.477Z,62.40
2023-04-06T11:19:13.809Z,61.00
2023-04-06T11:21:44.500Z,62.20
2023-04-06T11:24:15.193Z,62.50
2023-04-06T11:26:46.299Z,62.40
2023-04-06T11:29:15.769Z,62.10
2023-04-06T11:31:48.379Z,63.00
2023-04-06T11:34:19.926Z,63.40
2023-04-06T11:36:49.676Z,62.80
2023-04-06T11:39:22.037Z,62.30
2023-04-06T11:41:51.076Z,62.00
2023-04-06T11:44:32.055Z,62.50
2023-04-06T11:47:02.918Z,63.50
2023-04-06T11:49:31.997Z,62.60
2023-04-06T11:52:01.393Z,61.30
2023-04-06T11:54:34.385Z,59.40
2023-04-06T11:57:03.572Z,61.30
2023-04-06T11:59:32.300Z,60.00
2023-04-06T12:02:03.290Z,60.20
2023-04-06T12:04:31.882Z,60.40
2023-04-06T12:07:00.836Z,60.40
2023-04-06T12:09:29.290Z,61.00
2023-04-06T12:11:57.979Z,61.20
2023-04-06T12:14:26.427Z,60.90
2023-04-06T12:16:54.774Z,61.30
2023-04-06T12:19:26.782Z,61.90
2023-04-06T12:21:55.758Z,62.50
2023-04-06T12:24:24.589Z,61.40
2023-04-06T12:26:59.505Z,61.50
2023-04-06T12:29:31.502Z,60.60
2023-04-06T12:31:59.899Z,59.70
2023-04-06T12:34:29.876Z,60.60
2023-04-06T12:36:58.511Z,61.00
2023-04-06T12:39:27.792Z,61.20
2023-04-06T12:41:56.331Z,61.30
2023-04-06T12:44:26.817Z,59.80
2023-04-06T12:46:56.583Z,59.70
2023-04-06T12:49:25.482Z,60.00
2023-04-06T12:51:56.045Z,60.20
2023-04-06T12:54:24.751Z,59.60
2023-04-06T12:56:53.173Z,59.50
2023-04-06T12:59:22.016Z,59.50
2023-04-06T13:01:50.641Z,58.70
2023-04-06T13:04:19.781Z,59.30
2023-04-06T13:06:48.166Z,59.30
2023-04-06T13:09:18.042Z,59.70
2023-04-06T13:11:46.971Z,59.90
2023-04-06T13:14:15.791Z,58.80
2023-04-06T13:16:44.888Z,59.20
2023-04-06T13:19:13.771Z,58.70
2023-04-06T13:21:42.363Z,58.10
2023-04-06T13:24:10.957Z,57.70
2023-04-06T13:26:40.681Z,56.50
2023-04-06T13:29:09.584Z,57.20
2023-04-06T13:31:38.025Z,57.10
2023-04-06T13:34:06.878Z,56.90
2023-04-06T13:36:35.336Z,57.90
2023-04-06T13:39:04.780Z,58.40
2023-04-06T13:41:33.206Z,58.30
2023-04-06T13:44:03.464Z,58.00
2023-04-06T13:46:31.958Z,57.60
2023-04-06T13:49:01.226Z,56.80
2023-04-06T13:51:29.618Z,56.40
2023-04-06T13:53:57.938Z,57.40
2023-04-06T13:56:26.334Z,58.30
2023-04-06T13:58:57.504Z,58.00
2023-04-06T14:01:27.792Z,57.40
2023-04-06T14:03:56.854Z,56.70
2023-04-06T14:06:31.119Z,55.90
2023-04-06T14:09:00.691Z,55.60
2023-04-06T14:11:29.062Z,55.30
2023-04-06T14:13:58.587Z,54.70
2023-04-06T14:16:28.416Z,54.30
2023-04-06T14:18:59.103Z,54.60
2023-04-06T14:21:27.599Z,54.00
2023-04-06T14:23:58.704Z,55.80
2023-04-06T14:26:28.709Z,56.80
2023-04-06T14:28:57.027Z,57.10
2023-04-06T14:31:25.347Z,57.80
2023-04-06T14:33:55.183Z,58.70
2023-04-06T14:36:23.442Z,59.20
2023-04-06T14:38:53.260Z,59.20
2023-04-06T14:41:23.729Z,59.20
2023-04-06T14:43:53.807Z,58.60
2023-04-06T14:46:22.570Z,58.10
2023-04-06T14:48:51.848Z,58.10
2023-04-06T14:51:21.642Z,58.70
2023-04-06T14:53:50.106Z,59.00
2023-04-06T14:56:22.790Z,58.40
2023-04-06T14:58:51.785Z,57.70
2023-04-06T15:01:21.582Z,57.50
2023-04-06T15:03:50.637Z,57.60
2023-04-06T15:06:21.955Z,57.50
2023-04-06T15:08:51.207Z,57.40
2023-04-06T15:11:19.448Z,57.20
2023-04-06T15:13:48.445Z,57.70
2023-04-06T15:16:16.940Z,57.30
2023-04-06T15:18:45.733Z,57.20
2023-04-06T15:21:14.056Z,57.50
2023-04-06T15:23:44.464Z,57.70
2023-04-06T15:26:12.995Z,58.00
2023-04-06T15:28:41.953Z,58.00
2023-04-06T15:31:27.996Z,57.80
2023-04-06T15:34:02.753Z,57.60
2023-04-06T15:36:31.681Z,57.60
2023-04-06T15:39:02.096Z,57.90
2023-04-06T15:41:30.701Z,58.10
2023-04-06T15:43:59.793Z,57.90
2023-04-06T15:46:29.004Z,58.20
2023-04-06T15:48:58.475Z,58.40
2023-04-06T15:51:27.563Z,58.60
2023-04-06T15:53:57.177Z,58.50
2023-04-06T15:56:26.808Z,58.60
2023-04-06T15:58:55.121Z,58.70
2023-04-06T16:01:23.403Z,58.80
2023-04-06T16:03:51.769Z,58.90
2023-04-06T16:06:19.993Z,59.10
2023-04-06T16:08:48.747Z,58.70
2023-04-06T16:11:17.183Z,58.10
2023-04-06T16:13:54.687Z,58.10
2023-04-06T16:16:24.501Z,58.20
2023-04-06T16:18:53.341Z,58.10
2023-04-06T16:21:21.581Z,58.40
2023-04-06T16:23:50.404Z,58.70
2023-04-06T16:26:19.381Z,58.90
2023-04-06T16:28:49.784Z,58.90
2023-04-06T16:31:22.571Z,58.90
2023-04-06T16:33:51.888Z,59.10
2023-04-06T16:36:24.306Z,59.00
2023-04-06T16:38:52.864Z,59.10
2023-04-06T16:41:21.113Z,59.20
2023-04-06T16:43:51.417Z,59.20
2023-04-06T16:46:19.660Z,59.20
2023-04-06T16:48:47.966Z,59.00
2023-04-06T16:51:19.093Z,58.90
2023-04-06T16:53:48.308Z,58.80
2023-04-06T16:56:17.481Z,59.10
2023-04-06T16:58:46.373Z,59.40
2023-04-06T17:01:24.195Z,59.50
2023-04-06T17:03:53.639Z,59.90
2023-04-06T17:06:22.772Z,59.80
2023-04-06T17:08:51.318Z,59.70
2023-04-06T17:11:25.528Z,60.00
2023-04-06T17:13:56.800Z,60.20
2023-04-06T17:16:28.933Z,60.40
2023-04-06T17:18:58.082Z,60.60
2023-04-06T17:21:27.342Z,61.10
2023-04-06T17:23:55.852Z,61.30
2023-04-06T17:26:24.676Z,61.50
2023-04-06T17:28:52.982Z,61.80
2023-04-06T17:31:22.421Z,61.90
2023-04-06T17:33:52.504Z,62.00
2023-04-06T17:36:22.021Z,62.30
2023-04-06T17:38:50.631Z,62.30
2023-04-06T17:41:18.936Z,62.40
2023-04-06T17:43:48.250Z,62.70
2023-04-06T17:46:16.913Z,62.90
2023-04-06T17:48:46.579Z,62.70
2023-04-06T17:51:19.328Z,62.70
2023-04-06T17:53:47.810Z,62.90
2023-04-06T17:56:16.093Z,63.20
2023-04-06T17:58:45.361Z,63.50
2023-04-06T18:01:15.035Z,63.70
2023-04-06T18:03:43.381Z,63.70
2023-04-06T18:06:13.610Z,63.80
2023-04-06T18:08:44.130Z,64.00
2023-04-06T18:11:22.460Z,64.00
2023-04-06T18:13:50.835Z,64.10
2023-04-06T18:16:21.275Z,64.10
2023-04-06T18:18:50.403Z,64.10
2023-04-06T18:21:18.986Z,64.40
2023-04-06T18:23:49.438Z,64.40
2023-04-06T18:26:18.941Z,64.60
2023-04-06T18:28:47.997Z,64.70
2023-04-06T18:31:16.614Z,64.70
2023-04-06T18:33:45.360Z,64.80
2023-04-06T18:36:14.670Z,65.00
2023-04-06T18:38:44.620Z,65.00
2023-04-06T18:41:14.787Z,65.10
2023-04-06T18:43:43.339Z,65.10
2023-04-06T18:46:13.434Z,65.30
2023-04-06T18:48:42.117Z,65.30
2023-04-06T18:51:10.921Z,65.50
2023-04-06T18:53:40.013Z,65.40
2023-04-06T18:56:16.676Z,65.70
2023-04-06T18:58:45.449Z,65.80
2023-04-06T19:01:21.978Z,65.60
2023-04-06T19:03:50.692Z,66.00
2023-04-06T19:06:19.496Z,66.10
2023-04-06T19:08:48.726Z,66.20
2023-04-06T19:11:19.762Z,66.20
2023-04-06T19:13:50.092Z,66.30
2023-04-06T19:16:19.452Z,66.40
2023-04-06T19:18:48.158Z,66.60
2023-04-06T19:21:17.949Z,66.80
2023-04-06T19:23:47.885Z,66.80
2023-04-06T19:26:18.361Z,66.80
2023-04-06T19:28:47.626Z,66.80
2023-04-06T19:31:18.131Z,66.90
2023-04-06T19:33:47.995Z,67.00
2023-04-06T19:36:17.532Z,67.10
2023-04-06T19:38:46.205Z,67.40
2023-04-06T19:41:14.973Z,67.40
2023-04-06T19:43:44.602Z,67.80
2023-04-06T19:46:14.299Z,67.60
2023-04-06T19:48:43.247Z,67.60
2023-04-06T19:51:11.985Z,67.70
2023-04-06T19:53:40.270Z,67.80
2023-04-06T19:56:10.470Z,68.00
2023-04-06T19:58:39.163Z,68.00
2023-04-06T20:01:09.270Z,68.10
2023-04-06T20:03:38.032Z,68.10
2023-04-06T20:06:06.606Z,68.10
2023-04-06T20:08:34.899Z,68.20
2023-04-06T20:11:03.680Z,68.40
2023-04-06T20:13:32.010Z,68.30
2023-04-06T20:16:00.337Z,69.20
2023-04-06T20:18:30.089Z,68.50
2023-04-06T20:20:58.828Z,68.60
2023-04-06T20:23:27.156Z,68.60
2023-04-06T20:25:55.853Z,68.60
2023-04-06T20:28:24.367Z,68.60
2023-04-06T20:30:54.126Z,68.80
2023-04-06T20:33:24.068Z,68.90
2023-04-06T20:35:59.214Z,69.00
2023-04-06T20:38:33.050Z,69.00
2023-04-06T20:41:02.894Z,69.10
2023-04-06T20:43:31.768Z,69.10
2023-04-06T20:46:02.188Z,69.20
2023-04-06T20:48:33.714Z,69.30
2023-04-06T20:51:05.906Z,69.30
2023-04-06T20:53:34.239Z,69.60
2023-04-06T20:56:03.289Z,69.60
2023-04-06T20:58:31.488Z,69.60
2023-04-06T21:01:00.515Z,69.70
2023-04-06T21:03:28.946Z,69.90
2023-04-06T21:05:58.411Z,69.90
2023-04-06T21:08:28.207Z,70.00
2023-04-06T21:10:57.247Z,70.00
2023-04-06T21:13:25.622Z,70.00
2023-04-06T21:15:56.288Z,70.10
2023-04-06T21:18:24.753Z,70.10
2023-04-06T21:20:54.046Z,70.30
2023-04-06T21:23:23.114Z,70.20
2023-04-06T21:25:55.709Z,70.20
2023-04-06T21:28:24.886Z,70.40
2023-04-06T21:30:53.989Z,70.50
2023-04-06T21:33:22.612Z,70.40
2023-04-06T21:35:51.654Z,70.40
2023-04-06T21:38:20.359Z,70.70
2023-04-06T21:40:56.997Z,70.80
2023-04-06T21:43:25.302Z,71.00
2023-04-06T21:45:54.150Z,70.90
2023-04-06T21:48:22.814Z,71.00
2023-04-06T21:50:51.648Z,71.20
2023-04-06T21:53:20.247Z,71.30
2023-04-06T21:55:49.354Z,71.20
2023-04-06T21:58:19.059Z,71.20
2023-04-06T22:00:47.654Z,71.50
2023-04-06T22:03:16.258Z,71.60
2023-04-06T22:05:44.686Z,71.60
2023-04-06T22:08:20.823Z,71.90
2023-04-06T22:10:49.588Z,72.00
2023-04-06T22:13:19.170Z,72.00
2023-04-06T22:15:47.462Z,72.20
2023-04-06T22:18:15.681Z,72.20
2023-04-06T22:20:44.044Z,72.20
2023-04-06T22:23:12.631Z,72.40
2023-04-06T22:25:41.269Z,72.50
2023-04-06T22:28:09.482Z,72.50
2023-04-06T22:30:39.625Z,72.50
2023-04-06T22:33:07.891Z,72.60
2023-04-06T22:35:36.267Z,72.80
2023-04-06T22:38:04.462Z,73.00
2023-04-06T22:40:32.752Z,73.00
2023-04-06T22:43:01.003Z,72.80
2023-04-06T22:45:29.619Z,73.00
2023-04-06T22:47:59.303Z,73.00
2023-04-06T22:50:28.123Z,73.30
2023-04-06T22:52:56.596Z,73.40
2023-04-06T22:55:25.095Z,73.70
2023-04-06T22:57:53.334Z,73.60
2023-04-06T23:00:22.133Z,73.60
2023-04-06T23:02:50.526Z,73.70
2023-04-06T23:05:20.747Z,73.70
2023-04-06T23:07:48.951Z,73.60
2023-04-06T23:10:17.587Z,73.70
2023-04-06T23:12:46.117Z,73.90
2023-04-06T23:15:15.167Z,74.00
2023-04-06T23:17:43.455Z,74.00
2023-04-06T23:20:12.490Z,74.20
2023-04-06T23:22:42.148Z,74.10
2023-04-06T23:25:11.073Z,74.20
2023-04-06T23:27:39.296Z,74.40
2023-04-06T23:30:09.160Z,74.40
2023-04-06T23:32:37.604Z,74.50
2023-04-06T23:35:07.206Z,74.40
2023-04-06T23:37:35.581Z,74.40
2023-04-06T23:40:06.680Z,74.60
2023-04-06T23:42:35.000Z,74.80
2023-04-06T23:45:04.810Z,74.70
2023-04-06T23:47:33.157Z,74.70
2023-04-06T23:50:01.836Z,74.70
2023-04-06T23:52:30.731Z,74.80
2023-04-06T23:54:59.391Z,75.00
2023-04-06T23:57:30.092Z,75.00
